createdAt,value
2018-02-18T00:02:55.463Z,17.48
2018-02-18T00:05:28.142Z,17.33
2018-02-18T00:07:54.555Z,17.52
2018-02-18T00:10:20.936Z,19.10
2018-02-18T00:12:48.387Z,17.05
2018-02-18T00:15:14.788Z,16.85
2018-02-18T00:17:41.201Z,17.45
2018-02-18T00:20:08.967Z,18.37
2018-02-18T00:22:36.815Z,17.15
2018-02-18T00:25:03.171Z,17.87
2018-02-18T00:27:29.563Z,16.42
2018-02-18T00:29:55.975Z,19.77
2018-02-18T00:32:23.133Z,18.60
2018-02-18T00:34:49.523Z,17.95
2018-02-18T00:37:15.931Z,18.60
2018-02-18T00:39:42.420Z,17.92
2018-02-18T00:42:08.855Z,18.73
2018-02-18T00:44:35.247Z,19.08
2018-02-18T00:47:01.660Z,18.77
2018-02-18T00:49:29.566Z,18.00
2018-02-18T00:51:55.955Z,18.62
2018-02-18T00:54:24.323Z,19.35
2018-02-18T00:56:51.617Z,20.12
2018-02-18T00:59:18.055Z,17.67
2018-02-18T01:01:44.521Z,19.85
2018-02-18T01:04:10.957Z,19.05
2018-02-18T01:06:38.095Z,18.42
2018-02-18T01:09:04.543Z,19.05
2018-02-18T01:11:30.963Z,19.25
2018-02-18T01:13:57.324Z,19.30
2018-02-18T01:16:23.726Z,17.80
2018-02-18T01:18:50.129Z,20.30
2018-02-18T01:21:17.288Z,20.12
2018-02-18T01:23:43.724Z,18.90
2018-02-18T01:26:10.096Z,18.67
2018-02-18T01:28:37.287Z,19.25
2018-02-18T01:31:04.396Z,20.33
2018-02-18T01:33:30.779Z,18.40
2018-02-18T01:35:57.143Z,19.70
2018-02-18T01:38:24.276Z,21.35
2018-02-18T01:40:50.708Z,18.77
2018-02-18T01:43:17.132Z,19.67
2018-02-18T01:45:43.490Z,19.65
2018-02-18T01:48:09.872Z,19.42
2018-02-18T01:50:37.036Z,19.95
2018-02-18T01:53:03.407Z,20.70
2018-02-18T01:55:29.774Z,19.37
2018-02-18T01:57:56.176Z,19.92
2018-02-18T02:00:23.934Z,19.77
2018-02-18T02:02:50.384Z,19.92
2018-02-18T02:05:16.711Z,19.60
2018-02-18T02:07:42.995Z,20.12
2018-02-18T02:10:10.064Z,20.70
2018-02-18T02:12:36.406Z,21.37
2018-02-18T02:15:02.743Z,21.58
2018-02-18T02:17:30.097Z,21.15
2018-02-18T02:19:56.388Z,19.42
2018-02-18T02:22:23.435Z,20.05
2018-02-18T02:24:50.455Z,22.95
2018-02-18T02:27:16.767Z,23.55
2018-02-18T02:29:43.060Z,20.77
2018-02-18T02:32:09.368Z,20.00
2018-02-18T02:34:36.464Z,21.20
2018-02-18T02:37:02.736Z,20.85
2018-02-18T02:39:29.067Z,19.73
2018-02-18T02:41:55.365Z,21.90
2018-02-18T02:44:21.654Z,20.75
2018-02-18T02:46:48.699Z,22.17
2018-02-18T02:49:15.000Z,20.83
2018-02-18T02:51:42.065Z,20.00
2018-02-18T02:54:09.116Z,20.25
2018-02-18T02:56:36.212Z,22.52
2018-02-18T02:59:02.576Z,21.73
2018-02-18T03:01:28.870Z,20.88
2018-02-18T03:03:55.151Z,19.10
2018-02-18T03:06:23.205Z,22.10
2018-02-18T03:08:49.519Z,19.20
2018-02-18T03:11:15.807Z,22.10
2018-02-18T03:13:42.115Z,22.37
2018-02-18T03:16:09.187Z,19.27
2018-02-18T03:18:35.479Z,21.85
2018-02-18T03:21:01.846Z,20.30
2018-02-18T03:23:28.119Z,20.40
2018-02-18T03:25:54.453Z,22.17
2018-02-18T03:28:20.756Z,20.88
2018-02-18T03:30:48.107Z,20.92
2018-02-18T03:33:14.401Z,22.23
2018-02-18T03:35:41.428Z,21.77
2018-02-18T03:38:07.719Z,19.58
2018-02-18T03:40:34.001Z,21.20
2018-02-18T03:43:00.419Z,22.13
2018-02-18T03:45:26.705Z,21.92
2018-02-18T03:47:52.980Z,21.30
2018-02-18T03:50:19.281Z,22.55
2018-02-18T03:52:45.570Z,20.27
2018-02-18T03:55:12.611Z,21.40
2018-02-18T03:57:39.628Z,20.92
2018-02-18T04:00:05.915Z,19.60
2018-02-18T04:02:32.215Z,19.80
2018-02-18T04:04:59.239Z,19.58
2018-02-18T04:07:25.530Z,21.73
2018-02-18T04:09:51.798Z,21.67
2018-02-18T04:12:18.087Z,19.77
2018-02-18T04:14:45.115Z,22.42
2018-02-18T04:17:11.423Z,21.85
2018-02-18T04:19:38.491Z,23.15
2018-02-18T04:22:04.773Z,21.35
2018-02-18T04:24:31.047Z,19.58
2018-02-18T04:26:58.085Z,20.33
2018-02-18T04:29:25.120Z,21.37
2018-02-18T04:31:51.427Z,22.23
2018-02-18T04:34:17.718Z,21.42
2018-02-18T04:36:43.986Z,19.45
2018-02-18T04:39:10.276Z,21.50
2018-02-18T04:41:36.560Z,20.35
2018-02-18T04:44:02.868Z,20.10
2018-02-18T04:46:29.168Z,20.65
2018-02-18T04:48:55.447Z,20.15
2018-02-18T04:51:21.744Z,21.70
2018-02-18T04:53:48.047Z,19.95
2018-02-18T04:56:15.091Z,21.70
2018-02-18T04:58:42.104Z,21.27
2018-02-18T05:01:08.396Z,22.62
2018-02-18T05:03:34.674Z,20.73
2018-02-18T05:06:00.958Z,21.52
2018-02-18T05:08:27.255Z,21.80
2018-02-18T05:10:54.274Z,22.02
2018-02-18T05:13:21.304Z,20.35
2018-02-18T05:15:47.578Z,20.80
2018-02-18T05:18:14.610Z,20.88
2018-02-18T05:20:41.654Z,19.48
2018-02-18T05:23:07.922Z,21.50
2018-02-18T05:25:34.216Z,20.25
2018-02-18T05:28:01.234Z,25.55
2018-02-18T05:30:27.507Z,21.40
2018-02-18T05:32:54.539Z,21.80
2018-02-18T05:35:21.603Z,19.98
2018-02-18T05:37:48.618Z,22.08
2018-02-18T05:40:14.911Z,21.65
2018-02-18T05:42:41.182Z,22.52
2018-02-18T05:45:07.490Z,21.02
2018-02-18T05:47:33.797Z,23.60
2018-02-18T05:50:00.083Z,20.17
2018-02-18T05:52:27.098Z,21.73
2018-02-18T05:54:53.375Z,22.25
2018-02-18T05:57:21.510Z,21.45
2018-02-18T05:59:47.775Z,25.42
2018-02-18T06:02:14.822Z,24.15
2018-02-18T06:04:41.851Z,26.37
2018-02-18T06:07:08.146Z,25.17
2018-02-18T06:09:34.462Z,25.08
2018-02-18T06:12:00.750Z,25.60
2018-02-18T06:14:27.791Z,26.08
2018-02-18T06:16:54.058Z,25.83
2018-02-18T06:19:20.966Z,27.23
2018-02-18T06:21:48.014Z,24.20
2018-02-18T06:24:15.031Z,24.08
2018-02-18T06:26:41.325Z,22.33
2018-02-18T06:29:07.615Z,23.35
2018-02-18T06:31:35.252Z,22.08
2018-02-18T06:34:01.576Z,22.77
2018-02-18T06:36:28.882Z,23.55
2018-02-18T06:38:55.915Z,24.12
2018-02-18T06:41:23.687Z,22.87
2018-02-18T06:43:50.707Z,26.12
2018-02-18T06:46:16.997Z,25.40
2018-02-18T06:48:43.271Z,25.35
2018-02-18T06:51:09.591Z,24.52
2018-02-18T06:53:35.884Z,21.83
2018-02-18T06:56:02.911Z,25.10
2018-02-18T06:58:29.935Z,22.50
2018-02-18T07:00:56.218Z,22.20
2018-02-18T07:03:22.499Z,21.20
2018-02-18T07:05:49.515Z,19.35
2018-02-18T07:08:15.812Z,22.48
2018-02-18T07:10:42.089Z,20.67
2018-02-18T07:13:08.367Z,20.12
2018-02-18T07:15:34.655Z,22.20
2018-02-18T07:18:00.954Z,21.80
2018-02-18T07:20:28.266Z,21.25
2018-02-18T07:22:55.302Z,20.52
2018-02-18T07:25:23.351Z,20.40
2018-02-18T07:27:49.623Z,20.73
2018-02-18T07:30:16.699Z,20.98
2018-02-18T07:32:42.978Z,21.20
2018-02-18T07:35:10.031Z,22.35
2018-02-18T07:37:37.238Z,24.05
2018-02-18T07:40:03.527Z,22.33
2018-02-18T07:42:29.824Z,19.40
2018-02-18T07:44:56.123Z,20.42
2018-02-18T07:47:22.410Z,23.83
2018-02-18T07:49:49.439Z,22.37
2018-02-18T07:52:16.484Z,23.90
2018-02-18T07:54:42.771Z,20.77
2018-02-18T07:57:09.086Z,23.55
2018-02-18T07:59:35.365Z,21.50
2018-02-18T08:02:01.667Z,18.95
2018-02-18T08:04:27.946Z,21.58
2018-02-18T08:06:55.003Z,21.17
2018-02-18T08:09:22.044Z,22.00
2018-02-18T08:11:49.067Z,21.95
2018-02-18T08:14:15.377Z,23.23
2018-02-18T08:16:41.680Z,22.80
2018-02-18T08:19:08.000Z,20.40
2018-02-18T08:21:34.277Z,23.40
2018-02-18T08:24:00.574Z,22.35
2018-02-18T08:26:26.873Z,21.70
2018-02-18T08:28:53.898Z,22.37
2018-02-18T08:31:20.271Z,18.52
2018-02-18T08:33:46.589Z,19.25
2018-02-18T08:36:13.632Z,20.88
2018-02-18T08:38:40.663Z,24.35
2018-02-18T08:41:07.721Z,21.85
2018-02-18T08:43:34.746Z,20.52
2018-02-18T08:46:01.054Z,23.73
2018-02-18T08:48:27.363Z,21.70
2018-02-18T08:50:53.677Z,19.77
2018-02-18T08:53:20.054Z,20.92
2018-02-18T08:55:46.358Z,22.98
2018-02-18T08:58:12.703Z,21.73
2018-02-18T09:00:39.662Z,20.70
2018-02-18T09:03:05.967Z,20.02
2018-02-18T09:05:32.275Z,20.80
2018-02-18T09:07:58.553Z,24.35
2018-02-18T09:10:24.891Z,22.87
2018-02-18T09:12:51.167Z,23.38
2018-02-18T09:15:17.536Z,23.00
2018-02-18T09:17:43.823Z,23.70
2018-02-18T09:20:10.783Z,23.90
2018-02-18T09:22:37.087Z,23.10
2018-02-18T09:25:04.191Z,22.00
2018-02-18T09:27:30.507Z,20.00
2018-02-18T09:29:56.807Z,21.12
2018-02-18T09:32:23.147Z,21.35
2018-02-18T09:34:49.427Z,20.92
2018-02-18T09:37:15.723Z,22.25
2018-02-18T09:39:42.740Z,22.15
2018-02-18T09:42:09.038Z,20.52
2018-02-18T09:44:35.368Z,21.37
2018-02-18T09:47:01.639Z,21.48
2018-02-18T09:49:28.665Z,22.00
2018-02-18T09:51:54.968Z,23.20
2018-02-18T09:54:21.251Z,23.67
2018-02-18T09:56:48.288Z,21.65
2018-02-18T09:59:14.584Z,22.02
2018-02-18T10:01:40.915Z,20.52
2018-02-18T10:04:07.183Z,21.85
2018-02-18T10:06:33.471Z,17.80
2018-02-18T10:08:59.771Z,17.90
2018-02-18T10:11:26.075Z,18.92
2018-02-18T10:13:53.095Z,17.77
2018-02-18T10:16:19.503Z,18.15
2018-02-18T10:18:45.811Z,22.25
2018-02-18T10:21:12.115Z,22.10
2018-02-18T10:23:39.175Z,17.40
2018-02-18T10:26:06.228Z,15.95
2018-02-18T10:28:33.259Z,16.20
2018-02-18T10:31:00.275Z,33.35
2018-02-18T10:33:26.555Z,17.85
2018-02-18T10:35:52.888Z,16.92
2018-02-18T10:38:19.199Z,16.30
2018-02-18T10:40:46.240Z,15.18
2018-02-18T10:43:13.310Z,21.30
2018-02-18T10:45:40.339Z,16.60
2018-02-18T10:48:07.367Z,15.52
2018-02-18T10:50:33.662Z,21.23
2018-02-18T10:52:59.940Z,16.62
2018-02-18T10:55:26.244Z,16.27
2018-02-18T10:57:52.539Z,17.62
2018-02-18T11:00:19.076Z,16.37
2018-02-18T11:02:45.371Z,14.65
2018-02-18T11:05:11.643Z,16.00
2018-02-18T11:07:37.925Z,19.08
2018-02-18T11:10:04.217Z,19.92
2018-02-18T11:12:30.495Z,20.40
2018-02-18T11:14:57.512Z,18.37
2018-02-18T11:17:23.823Z,17.45
2018-02-18T11:19:50.115Z,19.48
2018-02-18T11:22:17.131Z,18.70
2018-02-18T11:24:43.417Z,17.37
2018-02-18T11:27:09.695Z,16.90
2018-02-18T11:29:36.000Z,19.25
2018-02-18T11:32:02.295Z,19.20
2018-02-18T11:34:28.591Z,19.40
2018-02-18T11:36:55.919Z,20.90
2018-02-18T11:39:23.221Z,21.62
2018-02-18T11:41:50.251Z,18.95
2018-02-18T11:44:17.272Z,19.58
2018-02-18T11:46:43.564Z,17.52
2018-02-18T11:49:09.874Z,18.10
2018-02-18T11:51:36.924Z,18.55
2018-02-18T11:54:03.950Z,20.08
2018-02-18T11:56:32.600Z,19.62
2018-02-18T11:58:58.895Z,19.80
2018-02-18T12:01:25.192Z,21.70
2018-02-18T12:03:51.479Z,20.20
2018-02-18T12:06:17.756Z,19.02
2018-02-18T12:08:44.819Z,26.65
2018-02-18T12:11:11.842Z,21.12
2018-02-18T12:13:38.126Z,22.35
2018-02-18T12:16:04.439Z,22.20
2018-02-18T12:18:30.727Z,19.55
2018-02-18T12:20:57.028Z,20.35
2018-02-18T12:23:23.318Z,20.48
2018-02-18T12:25:51.327Z,21.77
2018-02-18T12:28:17.651Z,20.40
2018-02-18T12:30:43.936Z,18.35
2018-02-18T12:33:10.960Z,17.48
2018-02-18T12:35:37.992Z,20.27
2018-02-18T12:38:04.300Z,18.73
2018-02-18T12:40:30.579Z,19.02
2018-02-18T12:42:56.879Z,17.87
2018-02-18T12:45:23.185Z,19.90
2018-02-18T12:47:49.492Z,18.42
2018-02-18T12:50:16.526Z,20.33
2018-02-18T12:52:43.545Z,17.92
2018-02-18T12:55:09.855Z,18.35
2018-02-18T12:57:36.218Z,17.87
2018-02-18T13:00:02.484Z,17.45
2018-02-18T13:02:30.306Z,16.77
2018-02-18T13:04:56.592Z,15.70
2018-02-18T13:07:22.895Z,16.33
2018-02-18T13:09:50.278Z,16.33
2018-02-18T13:12:16.998Z,16.20
2018-02-18T13:14:44.014Z,14.38
2018-02-18T13:17:10.292Z,15.98
2018-02-18T13:19:36.575Z,13.80
2018-02-18T13:22:02.860Z,12.30
2018-02-18T13:24:29.134Z,12.40
2018-02-18T13:26:56.223Z,12.05
2018-02-18T13:29:22.511Z,10.93
2018-02-18T13:31:49.542Z,11.40
2018-02-18T13:34:15.845Z,11.80
2018-02-18T13:36:42.114Z,13.45
2018-02-18T13:39:08.450Z,11.48
2018-02-18T13:41:34.736Z,12.00
2018-02-18T13:44:01.023Z,16.23
2018-02-18T13:46:28.995Z,12.85
2018-02-18T13:48:56.043Z,12.05
2018-02-18T13:51:23.101Z,12.18
2018-02-18T13:53:50.121Z,12.15
2018-02-18T13:56:16.436Z,13.27
2018-02-18T13:58:42.727Z,12.85
2018-02-18T14:01:09.060Z,14.45
2018-02-18T14:03:36.394Z,13.62
2018-02-18T14:06:03.484Z,13.45
2018-02-18T14:08:29.800Z,16.80
2018-02-18T14:10:56.075Z,19.65
2018-02-18T14:13:22.392Z,14.40
2018-02-18T14:15:48.703Z,13.38
2018-02-18T14:18:15.024Z,13.98
2018-02-18T14:20:41.306Z,13.73
2018-02-18T14:23:07.604Z,16.45
2018-02-18T14:25:33.882Z,16.25
2018-02-18T14:28:00.955Z,15.90
2018-02-18T14:30:27.243Z,16.75
2018-02-18T14:32:54.487Z,16.25
2018-02-18T14:35:20.776Z,16.77
2018-02-18T14:37:47.067Z,17.77
2018-02-18T14:40:13.342Z,15.38
2018-02-18T14:42:51.810Z,18.65
2018-02-18T14:45:30.298Z,18.33
2018-02-18T14:48:08.819Z,16.83
2018-02-18T14:50:47.327Z,17.45
2018-02-18T14:53:25.829Z,17.52
2018-02-18T14:56:04.367Z,17.50
2018-02-18T14:58:30.648Z,16.00
2018-02-18T15:00:57.664Z,17.15
2018-02-18T15:03:23.967Z,14.52
2018-02-18T15:05:50.260Z,15.00
2018-02-18T15:08:18.354Z,14.68
2018-02-18T15:10:45.688Z,15.50
2018-02-18T15:13:11.963Z,15.23
2018-02-18T15:15:38.238Z,14.85
2018-02-18T15:18:05.286Z,16.05
2018-02-18T15:20:33.362Z,17.10
2018-02-18T15:23:00.392Z,17.70
2018-02-18T15:25:27.441Z,18.95
2018-02-18T15:27:54.487Z,22.45
2018-02-18T15:30:21.520Z,41.75
2018-02-18T15:32:47.835Z,23.65
2018-02-18T15:35:14.135Z,20.70
2018-02-18T15:37:40.443Z,24.70
2018-02-18T15:40:07.466Z,21.92
2018-02-18T15:42:34.514Z,19.65
2018-02-18T15:45:01.558Z,20.23
2018-02-18T15:47:27.843Z,23.17
2018-02-18T15:49:54.198Z,19.25
2018-02-18T15:52:20.509Z,19.98
2018-02-18T15:54:46.805Z,17.33
2018-02-18T15:57:13.842Z,19.92
2018-02-18T15:59:40.855Z,19.17
2018-02-18T16:02:07.139Z,21.60
2018-02-18T16:04:33.415Z,22.37
2018-02-18T16:06:59.774Z,20.70
2018-02-18T16:09:27.355Z,18.23
2018-02-18T16:11:53.649Z,18.90
2018-02-18T16:14:19.995Z,19.27
2018-02-18T16:16:46.307Z,19.45
2018-02-18T16:19:12.587Z,18.80
2018-02-18T16:21:38.859Z,17.95
2018-02-18T16:24:05.180Z,18.90
2018-02-18T16:26:32.575Z,18.73
2018-02-18T16:28:59.636Z,18.20
2018-02-18T16:31:26.667Z,21.30
2018-02-18T16:33:53.699Z,20.20
2018-02-18T16:36:20.091Z,21.17
2018-02-18T16:38:46.383Z,23.15
2018-02-18T16:41:13.440Z,23.02
2018-02-18T16:43:39.760Z,20.35
2018-02-18T16:46:06.811Z,20.73
2018-02-18T16:48:33.836Z,18.48
2018-02-18T16:51:00.130Z,19.87
2018-02-18T16:53:26.439Z,17.58
2018-02-18T16:55:52.755Z,18.50
2018-02-18T16:58:19.817Z,17.20
2018-02-18T17:00:46.831Z,15.82
2018-02-18T17:03:13.164Z,16.75
2018-02-18T17:05:40.186Z,15.07
2018-02-18T17:08:06.459Z,16.85
2018-02-18T17:10:33.470Z,16.65
2018-02-18T17:12:59.751Z,17.75
2018-02-18T17:15:26.052Z,16.25
2018-02-18T17:17:53.066Z,19.58
2018-02-18T17:20:19.345Z,23.27
2018-02-18T17:22:46.370Z,31.60
2018-02-18T17:25:12.704Z,21.48
2018-02-18T17:27:39.736Z,25.83
2018-02-18T17:30:06.013Z,39.20
2018-02-18T17:32:32.309Z,20.00
2018-02-18T17:34:59.323Z,24.80
2018-02-18T17:37:25.600Z,23.15
2018-02-18T17:39:52.652Z,30.90
2018-02-18T17:42:19.679Z,25.02
2018-02-18T17:44:46.695Z,26.05
2018-02-18T17:47:12.974Z,25.12
2018-02-18T17:49:39.992Z,26.12
2018-02-18T17:52:06.286Z,22.75
2018-02-18T17:54:32.563Z,22.83
2018-02-18T17:56:59.960Z,26.35
2018-02-18T17:59:26.397Z,23.58
2018-02-18T18:01:52.707Z,28.83
2018-02-18T18:04:19.029Z,24.75
2018-02-18T18:06:46.059Z,26.52
2018-02-18T18:09:13.079Z,26.37
2018-02-18T18:11:39.369Z,27.25
2018-02-18T18:14:05.687Z,24.52
2018-02-18T18:16:32.007Z,24.20
2018-02-18T18:18:59.068Z,25.37
2018-02-18T18:21:26.116Z,26.77
2018-02-18T18:23:52.395Z,23.48
2018-02-18T18:26:18.675Z,24.80
2018-02-18T18:28:44.996Z,28.58
2018-02-18T18:31:12.035Z,26.67
2018-02-18T18:33:39.060Z,26.35
2018-02-18T18:36:05.352Z,25.88
2018-02-18T18:38:31.631Z,27.42
2018-02-18T18:40:57.924Z,29.48
2018-02-18T18:43:24.222Z,29.55
2018-02-18T18:45:51.247Z,29.05
2018-02-18T18:48:17.522Z,32.50
2018-02-18T18:50:43.804Z,31.92
2018-02-18T18:53:10.827Z,38.70
2018-02-18T18:55:37.197Z,37.40
2018-02-18T18:58:04.271Z,46.55
2018-02-18T19:00:30.597Z,34.28
2018-02-18T19:02:56.919Z,34.97
2018-02-18T19:05:23.264Z,35.05
2018-02-18T19:07:49.551Z,42.97
2018-02-18T19:10:16.592Z,62.13
2018-02-18T19:12:42.958Z,29.60
2018-02-18T19:15:09.268Z,31.50
2018-02-18T19:17:36.328Z,38.25
2018-02-18T19:20:03.364Z,31.12
2018-02-18T19:22:30.435Z,44.75
2018-02-18T19:24:56.722Z,29.67
2018-02-18T19:27:23.041Z,29.50
2018-02-18T19:29:49.342Z,26.77
2018-02-18T19:32:15.648Z,25.30
2018-02-18T19:34:41.943Z,27.45
2018-02-18T19:37:08.223Z,23.12
2018-02-18T19:39:34.515Z,21.37
2018-02-18T19:42:01.548Z,19.20
2018-02-18T19:44:27.843Z,23.08
2018-02-18T19:46:54.784Z,25.85
2018-02-18T19:49:21.072Z,21.27
2018-02-18T19:51:48.112Z,22.37
2018-02-18T19:54:14.414Z,27.95
2018-02-18T19:56:40.741Z,20.92
2018-02-18T19:59:07.035Z,19.00
2018-02-18T20:01:33.397Z,20.30
2018-02-18T20:03:59.683Z,20.02
2018-02-18T20:06:27.294Z,21.35
2018-02-18T20:08:53.583Z,22.35
2018-02-18T20:11:19.912Z,19.10
2018-02-18T20:13:46.263Z,20.60
2018-02-18T20:16:12.574Z,22.85
2018-02-18T20:18:38.855Z,21.77
2018-02-18T20:21:05.171Z,21.02
2018-02-18T20:23:31.481Z,22.10
2018-02-18T20:25:57.775Z,22.42
2018-02-18T20:28:24.814Z,19.60
2018-02-18T20:30:51.093Z,20.42
2018-02-18T20:33:17.409Z,21.77
2018-02-18T20:35:43.730Z,32.88
2018-02-18T20:38:10.064Z,24.25
2018-02-18T20:40:37.107Z,22.40
2018-02-18T20:43:04.153Z,21.42
2018-02-18T20:45:31.187Z,22.45
2018-02-18T20:47:58.215Z,24.00
2018-02-18T20:50:24.521Z,22.27
2018-02-18T20:52:50.811Z,22.77
2018-02-18T20:55:17.844Z,25.88
2018-02-18T20:57:44.876Z,24.35
2018-02-18T21:00:11.179Z,23.23
2018-02-18T21:02:37.491Z,23.98
2018-02-18T21:05:03.795Z,24.50
2018-02-18T21:07:30.828Z,22.50
2018-02-18T21:09:57.875Z,22.90
2018-02-18T21:12:24.902Z,24.65
2018-02-18T21:14:51.206Z,31.90
2018-02-18T21:17:17.494Z,26.55
2018-02-18T21:19:44.511Z,24.73
2018-02-18T21:22:10.815Z,24.00
2018-02-18T21:24:37.091Z,24.35
2018-02-18T21:27:03.383Z,26.45
2018-02-18T21:29:29.671Z,22.50
2018-02-18T21:31:55.960Z,23.27
2018-02-18T21:34:22.256Z,23.85
2018-02-18T21:36:48.535Z,22.58
2018-02-18T21:39:15.604Z,23.85
2018-02-18T21:41:42.636Z,25.37
2018-02-18T21:44:08.935Z,23.77
2018-02-18T21:46:35.211Z,22.52
2018-02-18T21:49:03.906Z,24.40
2018-02-18T21:51:30.205Z,23.35
2018-02-18T21:53:56.507Z,21.87
2018-02-18T21:56:22.817Z,23.90
2018-02-18T21:58:49.119Z,25.58
2018-02-18T22:01:15.452Z,26.12
2018-02-18T22:03:41.763Z,26.55
2018-02-18T22:06:08.803Z,27.15
2018-02-18T22:08:35.108Z,24.98
2018-02-18T22:11:01.392Z,22.98
2018-02-18T22:13:28.450Z,25.08
2018-02-18T22:15:55.471Z,22.98
2018-02-18T22:18:21.778Z,22.70
2018-02-18T22:20:48.063Z,23.85
2018-02-18T22:23:14.378Z,26.62
2018-02-18T22:25:41.675Z,22.70
2018-02-18T22:28:10.756Z,20.65
2018-02-18T22:30:38.076Z,23.67
2018-02-18T22:33:04.375Z,22.10
2018-02-18T22:35:31.433Z,22.73
2018-02-18T22:37:59.584Z,23.52
2018-02-18T22:40:25.863Z,21.62
2018-02-18T22:42:52.139Z,25.00
2018-02-18T22:45:18.419Z,21.83
2018-02-18T22:47:47.676Z,22.60
2018-02-18T22:50:13.957Z,23.17
2018-02-18T22:52:40.241Z,24.15
2018-02-18T22:55:07.302Z,23.45
2018-02-18T22:57:34.335Z,23.15
2018-02-18T23:00:00.640Z,24.40
2018-02-18T23:02:26.985Z,23.60
2018-02-18T23:04:53.311Z,22.77
2018-02-18T23:07:19.719Z,23.23
2018-02-18T23:09:46.006Z,23.00
2018-02-18T23:12:13.043Z,23.27
2018-02-18T23:14:39.338Z,24.63
2018-02-18T23:17:05.686Z,24.42
2018-02-18T23:19:32.000Z,24.20
2018-02-18T23:21:58.279Z,22.98
2018-02-18T23:24:24.631Z,23.17
2018-02-18T23:26:51.692Z,20.65
2018-02-18T23:29:18.728Z,21.05
2018-02-18T23:31:45.784Z,24.90
2018-02-18T23:34:12.085Z,24.05
2018-02-18T23:36:38.391Z,20.65
2018-02-18T23:39:04.675Z,23.73
2018-02-18T23:41:31.004Z,21.42
2018-02-18T23:43:57.302Z,23.20
2018-02-18T23:46:23.619Z,22.60
2018-02-18T23:48:49.923Z,24.05
2018-02-18T23:51:16.946Z,25.75
2018-02-18T23:53:43.276Z,25.02
2018-02-18T23:56:09.588Z,23.20
2018-02-18T23:58:35.923Z,26.75
